Time;durP1;ratioP1;P1;durP2;ratioP2;P2;SDS_P1;SDS_P2;PMS_P1;PMS_P2;Temp;Humidity;BMP_temperature;BMP_pressure;BME280_temperature;BME280_humidity;BME280_pressure;Samples;Min_cycle;Max_cycle;Signal;HPM_P1;HPM_P2
2022/09/21 00:02:21;;;;;;;12.55;6.05;;;;;;;9.65;100.00;99794.72;5114039;28;20039;-74
2022/09/21 00:04:49;;;;;;;11.43;5.90;;;;;;;9.57;100.00;99797.81;5114067;28;20067;-75
2022/09/21 00:07:17;;;;;;;12.32;5.95;;;;;;;9.66;100.00;99791.06;5113926;28;20048;-74
2022/09/21 00:09:45;;;;;;;12.60;5.88;;;;;;;9.62;100.00;99797.56;5113484;28;20077;-74
2022/09/21 00:12:13;;;;;;;15.20;6.13;;;;;;;9.57;100.00;99796.97;5113590;28;20048;-75
2022/09/21 00:14:40;;;;;;;13.35;6.07;;;;;;;9.58;100.00;99785.22;5113561;28;20393;-74
2022/09/21 00:17:08;;;;;;;12.20;5.55;;;;;;;9.55;100.00;99805.13;5113647;28;20553;-74
2022/09/21 00:19:37;;;;;;;12.05;5.97;;;;;;;9.46;100.00;99794.81;5113780;27;20051;-74
2022/09/21 00:22:06;;;;;;;14.07;6.60;;;;;;;9.47;100.00;99791.16;5113730;28;20050;-74
2022/09/21 00:24:34;;;;;;;15.68;6.65;;;;;;;9.51;100.00;99790.06;5113456;28;20548;-74
2022/09/21 00:27:01;;;;;;;13.23;6.03;;;;;;;9.49;100.00;99793.81;5113785;28;20039;-74
2022/09/21 00:29:29;;;;;;;13.30;6.40;;;;;;;9.47;100.00;99793.88;5113704;28;20054;-74
2022/09/21 00:31:57;;;;;;;13.98;6.47;;;;;;;9.54;100.00;99797.97;5113681;28;20044;-74
2022/09/21 00:34:24;;;;;;;13.73;6.10;;;;;;;9.51;100.00;99798.13;5113646;28;20040;-74
2022/09/21 00:36:53;;;;;;;13.75;6.10;;;;;;;9.53;100.00;99798.94;5113671;27;20043;-74
2022/09/21 00:39:21;;;;;;;13.65;6.20;;;;;;;9.38;100.00;99797.06;5113361;28;20408;-74
2022/09/21 00:41:52;;;;;;;13.52;6.30;;;;;;;9.41;100.00;99796.88;5113231;28;20050;-74
2022/09/21 00:44:25;;;;;;;14.88;6.10;;;;;;;9.41;100.00;99799.59;5113554;28;20079;-74
2022/09/21 00:46:54;;;;;;;13.85;6.68;;;;;;;9.39;100.00;99799.69;5113438;28;20047;-74
2022/09/21 00:49:22;;;;;;;12.30;6.40;;;;;;;9.34;100.00;99801.72;5113389;28;20046;-75
2022/09/21 00:51:50;;;;;;;14.07;6.70;;;;;;;9.31;100.00;99798.31;5113674;28;20401;-74
2022/09/21 00:54:22;;;;;;;12.65;6.50;;;;;;;9.33;100.00;99799.13;5113080;28;20052;-74
2022/09/21 00:56:50;;;;;;;14.38;6.28;;;;;;;9.33;100.00;99801.81;5114390;28;20043;-74
2022/09/21 00:59:19;;;;;;;12.73;6.25;;;;;;;9.39;100.00;99807.78;5113310;28;20071;-74
2022/09/21 01:01:47;;;;;;;13.52;6.65;;;;;;;9.36;100.00;99807.03;5113027;28;20092;-74
2022/09/21 01:04:17;;;;;;;13.30;6.78;;;;;;;9.40;100.00;99805.94;5113418;28;20047;-74
2022/09/21 01:06:45;;;;;;;14.18;6.82;;;;;;;9.43;100.00;99808.47;5113259;28;20050;-74
2022/09/21 01:09:13;;;;;;;13.27;6.82;;;;;;;9.58;100.00;99809.47;5112939;28;20052;-74
2022/09/21 01:11:47;;;;;;;13.35;6.82;;;;;;;9.49;100.00;99816.22;5113253;28;20047;-74
2022/09/21 01:14:23;;;;;;;12.65;6.75;;;;;;;9.47;100.00;99812.75;5113456;27;20892;-74
2022/09/21 01:17:01;;;;;;;13.98;6.75;;;;;;;9.48;100.00;99809.09;5113489;28;20409;-74
2022/09/21 01:19:45;;;;;;;16.52;6.85;;;;;;;9.57;100.00;99814.00;5113297;28;20040;-75
2022/09/21 01:22:18;;;;;;;13.70;6.82;;;;;;;9.55;100.00;99817.75;5115784;28;20039;-74
2022/09/21 01:24:52;;;;;;;13.95;6.95;;;;;;;9.54;100.00;99816.84;5117570;27;20050;-75
2022/09/21 01:27:55;;;;;;;13.77;6.68;;;;;;;9.48;100.00;99817.19;5118196;28;20071;-74
2022/09/21 01:30:24;;;;;;;13.88;6.60;;;;;;;9.52;100.00;99810.66;5111795;28;20047;-74
2022/09/21 01:32:55;;;;;;;12.73;6.85;;;;;;;9.60;100.00;99812.97;5117019;28;20126;-74
2022/09/21 01:35:26;;;;;;;15.52;7.65;;;;;;;9.58;100.00;99806.78;5117535;28;20499;-74
2022/09/21 01:37:57;;;;;;;12.57;6.55;;;;;;;9.70;100.00;99810.66;5117395;27;20040;-74
2022/09/21 01:40:28;;;;;;;13.18;6.97;;;;;;;9.72;100.00;99808.75;5116276;28;20397;-74
2022/09/21 01:42:57;;;;;;;14.88;7.30;;;;;;;9.71;100.00;99812.41;5116898;28;20088;-74
2022/09/21 01:45:28;;;;;;;12.93;6.93;;;;;;;9.68;100.00;99815.28;5116729;28;20508;-74
2022/09/21 01:47:57;;;;;;;14.93;7.20;;;;;;;9.73;100.00;99813.19;5118071;27;20048;-74
2022/09/21 01:50:26;;;;;;;16.30;7.05;;;;;;;9.81;100.00;99813.66;5116670;27;20493;-74
2022/09/21 01:52:57;;;;;;;14.50;6.95;;;;;;;9.91;100.00;99822.13;5116281;28;20601;-74
2022/09/21 01:55:27;;;;;;;19.08;7.72;;;;;;;9.97;100.00;99819.09;5117127;28;20044;-74
2022/09/21 01:57:58;;;;;;;16.70;7.38;;;;;;;9.94;100.00;99827.34;5116480;28;20481;-74
2022/09/21 02:00:28;;;;;;;13.23;7.60;;;;;;;9.93;100.00;99824.72;5118374;28;20405;-74
2022/09/21 02:03:00;;;;;;;15.38;8.25;;;;;;;9.92;100.00;99821.19;5116930;28;20054;-74
2022/09/21 02:05:29;;;;;;;17.33;7.95;;;;;;;9.96;100.00;99828.16;5117024;28;20489;-74
2022/09/21 02:07:57;;;;;;;14.82;7.93;;;;;;;9.95;100.00;99826.41;5115856;28;20043;-75
2022/09/21 02:10:29;;;;;;;14.68;8.13;;;;;;;9.97;100.00;99823.59;5116439;28;20101;-74
2022/09/21 02:13:00;;;;;;;16.08;8.23;;;;;;;10.02;100.00;99829.66;5116424;28;20118;-74
2022/09/21 02:15:33;;;;;;;15.13;8.25;;;;;;;10.11;100.00;99826.44;5116634;28;20051;-74
2022/09/21 02:18:05;;;;;;;14.95;8.63;;;;;;;9.93;100.00;99820.22;5117026;27;20052;-74
2022/09/21 02:20:36;;;;;;;16.88;8.75;;;;;;;10.13;100.00;99821.84;5117582;27;20051;-74
2022/09/21 02:23:08;;;;;;;14.50;8.18;;;;;;;9.99;100.00;99821.69;5115408;28;20047;-74
2022/09/21 02:25:42;;;;;;;15.45;8.88;;;;;;;10.21;100.00;99829.50;5116439;28;20051;-74
2022/09/21 02:28:14;;;;;;;17.40;9.48;;;;;;;10.11;100.00;99825.56;5116870;28;20044;-74
2022/09/21 02:30:47;;;;;;;18.63;8.85;;;;;;;10.16;100.00;99828.88;5117076;27;20055;-74
2022/09/21 02:33:20;;;;;;;18.00;9.00;;;;;;;10.24;100.00;99829.34;5116809;28;20044;-74
2022/09/21 02:35:51;;;;;;;16.33;8.85;;;;;;;10.10;100.00;99827.41;5117178;28;20036;-74
2022/09/21 02:38:25;;;;;;;17.77;9.80;;;;;;;10.02;100.00;99831.47;5115125;28;20044;-74
2022/09/21 02:40:55;;;;;;;16.08;9.23;;;;;;;10.02;100.00;99826.06;5116213;28;20043;-75
2022/09/21 02:43:26;;;;;;;19.60;9.55;;;;;;;9.95;100.00;99828.22;5115572;27;20043;-74
2022/09/21 02:45:59;;;;;;;17.05;9.05;;;;;;;10.01;100.00;99833.31;5116932;28;20043;-74
2022/09/21 02:48:31;;;;;;;18.08;9.20;;;;;;;10.01;100.00;99833.31;5117543;27;20046;-74
2022/09/21 02:51:04;;;;;;;15.98;8.95;;;;;;;10.00;100.00;99837.81;5115536;28;20630;-75
2022/09/21 02:53:35;;;;;;;14.63;8.38;;;;;;;10.10;100.00;99846.28;5115444;28;20047;-74
2022/09/21 02:56:06;;;;;;;16.73;8.73;;;;;;;9.94;100.00;99843.53;5116284;27;20412;-74
2022/09/21 02:58:36;;;;;;;15.88;8.85;;;;;;;10.02;100.00;99836.84;5115274;28;20051;-74
2022/09/21 03:01:07;;;;;;;15.25;9.02;;;;;;;10.13;100.00;99846.13;5117084;28;20557;-75
2022/09/21 03:03:34;;;;;;;21.88;8.68;;;;;;;10.13;100.00;99848.81;5115458;28;20111;-74
2022/09/21 03:06:02;;;;;;;15.35;8.32;;;;;;;10.07;100.00;99848.28;5114791;28;20040;-74
2022/09/21 03:08:30;;;;;;;16.15;8.60;;;;;;;10.06;100.00;99846.53;5115102;28;20446;-74
2022/09/21 03:10:57;;;;;;;14.80;8.68;;;;;;;9.96;100.00;99849.72;5115181;28;20092;-74
2022/09/21 03:13:25;;;;;;;14.95;8.48;;;;;;;10.07;100.00;99842.88;5114987;28;20404;-74
2022/09/21 03:15:59;;;;;;;18.38;8.93;;;;;;;10.22;100.00;99850.16;5114559;27;20048;-75
2022/09/21 03:18:28;;;;;;;16.15;8.27;;;;;;;10.35;100.00;99844.94;5116576;27;20549;-74
2022/09/21 03:20:56;;;;;;;16.52;8.07;;;;;;;10.24;100.00;99852.75;5114626;27;20596;-74
2022/09/21 03:23:24;;;;;;;16.35;8.18;;;;;;;10.18;100.00;99847.69;5114608;27;20040;-74
2022/09/21 03:25:53;;;;;;;15.18;7.88;;;;;;;10.21;100.00;99855.63;5114692;28;20524;-74
2022/09/21 03:28:21;;;;;;;14.20;8.07;;;;;;;10.37;100.00;99853.81;5114827;28;20101;-74
2022/09/21 03:30:49;;;;;;;14.85;7.63;;;;;;;10.15;100.00;99849.59;5114400;28;20040;-74
2022/09/21 03:33:17;;;;;;;17.02;8.75;;;;;;;10.07;100.00;99859.97;5114559;28;20050;-74
2022/09/21 03:35:48;;;;;;;16.63;8.77;;;;;;;10.32;100.00;99857.75;5114114;28;20050;-74
2022/09/21 03:38:16;;;;;;;16.83;9.45;;;;;;;10.26;100.00;99856.25;5114238;28;20393;-74
2022/09/21 03:40:46;;;;;;;17.15;8.50;;;;;;;10.09;100.00;99852.66;5114539;28;20508;-74
2022/09/21 03:43:14;;;;;;;15.55;8.70;;;;;;;10.02;100.00;99855.75;5114506;28;20048;-74
2022/09/21 03:45:41;;;;;;;15.02;8.68;;;;;;;10.09;100.00;99863.44;5113120;28;20488;-74
2022/09/21 03:48:10;;;;;;;17.15;8.60;;;;;;;10.27;100.00;99866.97;5113404;28;20382;-74
2022/09/21 03:50:38;;;;;;;14.63;8.05;;;;;;;10.26;100.00;99858.94;5114254;28;20051;-74
2022/09/21 03:53:07;;;;;;;16.00;7.68;;;;;;;10.32;100.00;99858.59;5113917;27;20047;-74
2022/09/21 03:55:35;;;;;;;14.68;7.93;;;;;;;10.28;100.00;99857.91;5114115;28;20452;-74
2022/09/21 03:58:03;;;;;;;14.07;7.63;;;;;;;10.14;100.00;99860.47;5114088;28;20039;-75
2022/09/21 04:00:31;;;;;;;14.98;7.68;;;;;;;10.38;100.00;99871.75;5114052;28;20063;-75
2022/09/21 04:02:59;;;;;;;15.10;7.38;;;;;;;10.09;100.00;99859.84;5113874;28;20039;-74
2022/09/21 04:05:26;;;;;;;14.77;8.00;;;;;;;10.09;100.00;99868.84;5114027;28;20048;-74
2022/09/21 04:07:55;;;;;;;15.57;8.23;;;;;;;10.19;100.00;99874.59;5114083;27;20043;-74
2022/09/21 04:10:25;;;;;;;17.55;8.48;;;;;;;10.19;100.00;99876.44;5113914;28;20048;-74
2022/09/21 04:12:57;;;;;;;16.17;7.72;;;;;;;10.02;100.00;99877.34;5114448;28;20044;-74
2022/09/21 04:15:24;;;;;;;14.38;7.78;;;;;;;9.92;100.00;99887.75;5114626;28;20424;-74
2022/09/21 04:17:53;;;;;;;14.52;7.43;;;;;;;10.05;100.00;99883.47;5113371;28;20454;-75
2022/09/21 04:20:21;;;;;;;15.80;7.13;;;;;;;10.08;100.00;99877.88;5113894;28;20101;-74
2022/09/21 04:22:50;;;;;;;13.43;6.75;;;;;;;10.10;100.00;99885.88;5113751;27;20055;-74
2022/09/21 04:25:17;;;;;;;15.05;7.47;;;;;;;10.14;100.00;99876.66;5113767;28;20055;-75
2022/09/21 04:27:47;;;;;;;14.57;7.28;;;;;;;10.07;100.00;99883.34;5113730;28;20499;-75
2022/09/21 04:30:16;;;;;;;14.98;7.50;;;;;;;10.12;100.00;99879.47;5113637;28;20050;-74
2022/09/21 04:32:43;;;;;;;13.43;7.05;;;;;;;10.15;100.00;99882.00;5113285;28;20485;-74
2022/09/21 04:35:11;;;;;;;13.95;6.72;;;;;;;10.21;100.00;99882.63;5113677;28;20100;-74
2022/09/21 04:37:39;;;;;;;13.40;6.90;;;;;;;10.15;100.00;99878.41;5111386;28;20672;-73
2022/09/21 04:40:08;;;;;;;16.92;7.03;;;;;;;10.30;100.00;99882.09;5110128;28;20061;-75
2022/09/21 04:42:35;;;;;;;14.55;7.55;;;;;;;10.23;100.00;99876.19;5109840;28;20047;-74
2022/09/21 04:45:05;;;;;;;14.05;6.93;;;;;;;10.27;100.00;99876.88;5109906;28;20069;-74
2022/09/21 04:47:32;;;;;;;12.60;6.40;;;;;;;10.28;100.00;99881.31;5109680;28;20040;-73
2022/09/21 04:50:00;;;;;;;12.98;7.20;;;;;;;10.41;100.00;99885.16;5110105;28;20070;-74
2022/09/21 04:52:27;;;;;;;13.15;6.47;;;;;;;10.37;100.00;99882.66;5110074;28;20051;-74
2022/09/21 04:54:55;;;;;;;14.48;7.00;;;;;;;10.25;100.00;99884.19;5109641;28;20130;-74
2022/09/21 04:57:23;;;;;;;15.77;7.60;;;;;;;10.22;100.00;99892.47;5112524;28;20085;-74
2022/09/21 04:59:50;;;;;;;17.42;8.35;;;;;;;10.28;100.00;99892.13;5114162;28;20421;-76
2022/09/21 05:02:19;;;;;;;13.00;7.10;;;;;;;10.39;100.00;99892.41;5113697;28;20051;-74
2022/09/21 05:04:47;;;;;;;16.85;7.30;;;;;;;10.34;100.00;99891.78;5114054;28;20061;-75
2022/09/21 05:07:14;;;;;;;13.85;6.90;;;;;;;10.31;100.00;99894.66;5113662;28;20055;-76
2022/09/21 05:12:26;;;;;;;14.02;6.68;;;;;;;10.33;100.00;99898.13;5119426;28;20051;-75
2022/09/21 05:14:54;;;;;;;15.93;8.70;;;;;;;10.37;100.00;99897.00;5117028;28;20052;-74
2022/09/21 05:17:23;;;;;;;15.80;8.10;;;;;;;10.34;100.00;99885.53;5116664;27;20126;-74
2022/09/21 05:19:52;;;;;;;14.45;7.25;;;;;;;10.45;100.00;99893.06;5117199;27;20090;-74
2022/09/21 05:22:19;;;;;;;13.88;6.80;;;;;;;10.41;100.00;99890.53;5117232;27;20054;-74
2022/09/21 05:24:47;;;;;;;14.18;6.63;;;;;;;10.46;100.00;99892.13;5116975;27;20040;-74
2022/09/21 05:27:15;;;;;;;14.15;6.95;;;;;;;10.54;100.00;99888.00;5117257;28;20561;-74
2022/09/21 05:29:43;;;;;;;14.43;6.75;;;;;;;10.64;100.00;99896.47;5116713;28;20058;-74
2022/09/21 05:32:16;;;;;;;12.32;6.40;;;;;;;10.60;100.00;99902.13;5116924;28;20048;-74
2022/09/21 05:34:52;;;;;;;13.40;6.60;;;;;;;10.55;100.00;99903.25;5117846;28;20477;-74
2022/09/21 05:37:42;;;;;;;17.75;7.07;;;;;;;10.48;100.00;99899.16;5117640;28;20043;-75
2022/09/21 05:40:12;;;;;;;15.20;7.68;;;;;;;10.36;100.00;99903.38;5117884;28;20077;-74
2022/09/21 05:42:40;;;;;;;13.65;7.10;;;;;;;10.52;100.00;99898.03;5116755;28;20043;-74
2022/09/21 05:45:10;;;;;;;14.57;7.60;;;;;;;10.45;100.00;99909.28;5116302;28;20404;-74
2022/09/21 05:47:40;;;;;;;13.40;6.93;;;;;;;10.45;100.00;99904.72;5116917;28;20051;-73
2022/09/21 05:50:20;;;;;;;14.05;6.65;;;;;;;10.42;100.00;99905.78;5116583;28;20067;-74
2022/09/21 05:52:54;;;;;;;14.23;6.60;;;;;;;10.50;100.00;99901.78;5117499;28;20369;-73
2022/09/21 05:55:27;;;;;;;12.48;6.03;;;;;;;10.61;100.00;99906.59;5117383;28;20043;-74
2022/09/21 05:57:59;;;;;;;13.90;6.28;;;;;;;10.44;100.00;99913.78;5117606;28;20035;-74
2022/09/21 06:00:27;;;;;;;14.23;6.32;;;;;;;10.47;100.00;99916.31;5116286;28;20039;-74
2022/09/21 06:03:04;;;;;;;11.75;5.82;;;;;;;10.37;100.00;99920.44;5116419;28;20047;-76
2022/09/21 06:05:34;;;;;;;9.95;5.28;;;;;;;10.36;100.00;99919.56;5116333;28;20428;-74
2022/09/21 06:08:02;;;;;;;12.48;5.85;;;;;;;10.36;100.00;99916.88;5115023;28;20047;-74
2022/09/21 06:10:33;;;;;;;10.85;4.95;;;;;;;10.43;100.00;99923.72;5116314;27;20054;-73
2022/09/21 06:13:01;;;;;;;10.48;4.82;;;;;;;10.45;100.00;99920.06;5116515;28;20450;-74
2022/09/21 06:15:29;;;;;;;10.93;5.00;;;;;;;10.50;100.00;99921.56;5115644;28;20121;-74
2022/09/21 06:17:58;;;;;;;9.50;4.70;;;;;;;10.35;100.00;99922.38;5115919;27;20044;-74
2022/09/21 06:20:26;;;;;;;11.10;4.65;;;;;;;10.45;100.00;99925.47;5116148;27;20435;-75
2022/09/21 06:23:00;;;;;;;18.85;9.88;;;;;;;10.58;100.00;99923.84;5116010;27;20050;-74
2022/09/21 06:25:28;;;;;;;10.50;5.47;;;;;;;10.63;100.00;99932.56;5116538;28;20485;-74
2022/09/21 06:27:56;;;;;;;11.55;4.88;;;;;;;10.50;100.00;99928.78;5115700;28;20042;-74
2022/09/21 06:30:23;;;;;;;11.10;4.65;;;;;;;10.40;100.00;99926.59;5116005;28;20043;-74
2022/09/21 06:32:51;;;;;;;9.07;4.60;;;;;;;10.45;100.00;99933.56;5115672;28;20039;-74
2022/09/21 06:35:18;;;;;;;14.98;5.55;;;;;;;10.48;100.00;99934.25;5115737;28;20043;-74
2022/09/21 06:37:46;;;;;;;11.80;5.10;;;;;;;10.56;100.00;99932.00;5115516;28;20477;-74
2022/09/21 06:40:15;;;;;;;10.48;4.97;;;;;;;10.59;100.00;99936.38;5115707;28;20056;-74
2022/09/21 06:42:42;;;;;;;11.30;5.45;;;;;;;10.36;100.00;99938.47;5115194;28;20408;-74
2022/09/21 06:45:10;;;;;;;10.93;5.57;;;;;;;10.49;100.00;99937.84;5112000;28;20051;-74
2022/09/21 06:47:38;;;;;;;12.35;5.90;;;;;;;10.40;100.00;99942.81;5111979;28;20092;-75
2022/09/21 06:50:06;;;;;;;11.70;5.70;;;;;;;10.49;100.00;99935.16;5111561;28;20039;-74
2022/09/21 06:52:34;;;;;;;10.65;5.25;;;;;;;10.57;100.00;99941.00;5112067;28;20047;-74
2022/09/21 06:55:01;;;;;;;12.32;6.00;;;;;;;10.55;100.00;99934.81;5111754;28;20150;-74
2022/09/21 06:57:31;;;;;;;10.55;5.05;;;;;;;10.63;100.00;99947.91;5111512;28;20051;-74
2022/09/21 06:59:59;;;;;;;10.63;5.28;;;;;;;10.64;100.00;99947.81;5111740;28;20565;-74
2022/09/21 07:02:27;;;;;;;10.98;5.40;;;;;;;10.67;100.00;99938.69;5111403;28;20039;-76
2022/09/21 07:04:54;;;;;;;10.88;5.65;;;;;;;10.70;100.00;99943.91;5111820;28;20055;-76
2022/09/21 07:07:22;;;;;;;11.65;4.82;;;;;;;10.70;100.00;99944.75;5111768;28;20116;-75
2022/09/21 07:09:50;;;;;;;11.18;5.22;;;;;;;10.62;100.00;99952.41;5111641;28;20101;-74
2022/09/21 07:12:18;;;;;;;10.13;4.93;;;;;;;10.62;100.00;99951.56;5111019;28;20126;-74
2022/09/21 07:14:47;;;;;;;12.10;6.00;;;;;;;10.68;100.00;99943.13;5111296;28;20060;-75
2022/09/21 07:17:14;;;;;;;11.50;5.30;;;;;;;10.58;100.00;99950.84;5111117;28;20047;-74
2022/09/21 07:19:42;;;;;;;10.82;5.63;;;;;;;10.50;100.00;99958.50;5111309;27;20055;-73
2022/09/21 07:22:09;;;;;;;11.45;4.97;;;;;;;10.68;100.00;99960.19;5111550;27;20101;-74
2022/09/21 07:24:37;;;;;;;12.15;5.18;;;;;;;10.60;100.00;99965.13;5110760;27;20054;-74
2022/09/21 07:27:04;;;;;;;10.73;4.93;;;;;;;10.60;100.00;99961.56;5110930;28;20058;-74
2022/09/21 07:29:32;;;;;;;10.77;5.53;;;;;;;10.61;100.00;99960.63;5111281;28;20397;-74
2022/09/21 07:32:02;;;;;;;10.55;5.35;;;;;;;10.71;100.00;99962.72;5111169;28;20051;-75
2022/09/21 07:34:29;;;;;;;10.68;5.13;;;;;;;10.66;100.00;99967.50;5111062;28;20044;-74
2022/09/21 07:36:57;;;;;;;10.82;5.68;;;;;;;10.47;100.00;99975.72;5110852;28;20040;-75
2022/09/21 07:39:24;;;;;;;12.52;6.03;;;;;;;10.52;100.00;99978.19;5110821;28;20146;-75
2022/09/21 07:41:52;;;;;;;12.10;5.47;;;;;;;10.49;100.00;99975.66;5110645;28;20051;-74
2022/09/21 07:44:21;;;;;;;11.70;5.32;;;;;;;10.50;100.00;99980.97;5111068;27;20112;-74
2022/09/21 07:46:49;;;;;;;13.25;6.50;;;;;;;10.56;100.00;99977.91;5110832;28;20043;-74
2022/09/21 07:49:18;;;;;;;12.55;5.85;;;;;;;10.49;100.00;99976.50;5110520;27;20054;-75
2022/09/21 07:51:45;;;;;;;14.48;6.78;;;;;;;10.55;100.00;99978.03;5110862;28;20047;-74
2022/09/21 07:54:14;;;;;;;14.93;6.78;;;;;;;10.56;100.00;99977.06;5110601;28;20051;-74
2022/09/21 07:59:04;;;;;;;13.00;6.07;;;;;;;10.56;100.00;99974.38;5110310;27;20147;-74
2022/09/21 07:59:31;;;;;;;12.73;6.45;;;;;;;10.69;100.00;99978.13;5111318;28;20048;-74
2022/09/21 08:01:59;;;;;;;12.63;5.85;;;;;;;10.80;100.00;99976.66;5110247;28;20078;-74
2022/09/21 08:04:28;;;;;;;13.27;6.22;;;;;;;10.82;100.00;99978.34;5110572;28;20048;-74
2022/09/21 08:06:56;;;;;;;14.30;6.82;;;;;;;10.83;100.00;99976.53;5110613;28;20047;-74
2022/09/21 08:09:23;;;;;;;13.52;6.75;;;;;;;10.66;100.00;99986.41;5110055;28;20051;-76
2022/09/21 08:11:51;;;;;;;13.20;6.65;;;;;;;10.73;100.00;99981.56;5110276;28;20048;-74
2022/09/21 08:14:19;;;;;;;13.77;6.85;;;;;;;10.88;100.00;99979.84;5109269;28;20063;-76
2022/09/21 08:16:47;;;;;;;13.60;6.93;;;;;;;10.77;100.00;99990.34;5110001;28;20058;-75
2022/09/21 08:19:16;;;;;;;17.55;8.30;;;;;;;10.79;100.00;99989.31;5110193;27;20051;-74
2022/09/21 08:21:45;;;;;;;12.73;6.50;;;;;;;10.75;100.00;99995.84;5110390;27;20116;-74
2022/09/21 08:24:13;;;;;;;12.32;6.40;;;;;;;10.82;100.00;99999.09;5109462;27;20051;-77
2022/09/21 08:26:41;;;;;;;14.38;7.32;;;;;;;10.72;100.00;99999.56;5109899;28;20054;-75
2022/09/21 08:29:09;;;;;;;12.00;6.25;;;;;;;10.83;100.00;100004.41;5110092;28;20047;-74
2022/09/21 08:31:36;;;;;;;13.25;6.25;;;;;;;10.83;100.00;100000.84;5109598;28;20051;-74
2022/09/21 08:34:04;;;;;;;12.70;6.25;;;;;;;10.87;100.00;100007.81;5110037;28;20039;-75
2022/09/21 08:36:33;;;;;;;12.15;5.90;;;;;;;10.92;100.00;100000.31;5109730;27;20073;-74
2022/09/21 08:39:02;;;;;;;11.73;5.90;;;;;;;10.92;100.00;100003.03;5109437;28;20051;-74
2022/09/21 08:41:45;;;;;;;11.68;5.35;;;;;;;11.04;100.00;100000.59;5110048;28;20048;-73
2022/09/21 08:44:16;;;;;;;12.20;5.90;;;;;;;11.18;100.00;99992.56;5110786;28;20071;-75
2022/09/21 08:46:43;;;;;;;10.75;5.22;;;;;;;11.26;100.00;99993.03;5110832;28;20378;-74
2022/09/21 08:49:13;;;;;;;11.90;4.80;;;;;;;11.35;100.00;99994.31;5109691;28;20411;-75
2022/09/21 08:51:46;;;;;;;9.95;4.95;;;;;;;11.45;100.00;99990.16;5111978;28;20108;-75
2022/09/21 08:54:18;;;;;;;11.35;5.13;;;;;;;11.49;100.00;99996.22;5109387;28;20063;-74
2022/09/21 08:56:46;;;;;;;10.38;4.95;;;;;;;11.47;100.00;100000.00;5110815;28;20051;-74
2022/09/21 08:59:15;;;;;;;8.63;3.97;;;;;;;11.49;100.00;99998.09;5110259;28;20039;-74
2022/09/21 09:01:53;;;;;;;7.07;3.60;;;;;;;11.44;100.00;100003.75;5111974;28;20050;-75
2022/09/21 09:04:35;;;;;;;7.63;3.20;;;;;;;11.40;100.00;100003.03;5108075;28;20048;-75
2022/09/21 09:07:10;;;;;;;7.63;3.30;;;;;;;11.30;100.00;99997.31;5111647;28;20040;-75
2022/09/21 09:09:52;;;;;;;12.10;5.45;;;;;;;11.39;100.00;99995.88;5109863;28;20054;-74
2022/09/21 09:12:33;;;;;;;8.85;3.45;;;;;;;11.46;100.00;99996.41;5109837;28;20520;-74
2022/09/21 09:15:30;;;;;;;7.18;3.13;;;;;;;11.51;100.00;99994.31;5109753;28;20063;-74
2022/09/21 09:18:02;;;;;;;5.95;2.80;;;;;;;11.45;100.00;99989.25;5107118;28;20075;-75
2022/09/21 09:20:32;;;;;;;4.45;2.60;;;;;;;11.44;100.00;99992.94;5109837;27;20097;-74
2022/09/21 09:23:06;;;;;;;5.10;2.55;;;;;;;11.39;100.00;100005.84;5108744;27;20045;-74
2022/09/21 09:25:38;;;;;;;4.32;2.20;;;;;;;11.22;100.00;100004.09;5110233;27;20078;-75
2022/09/21 09:28:23;;;;;;;5.63;2.38;;;;;;;11.21;100.00;100013.16;5110507;28;20493;-74
2022/09/21 09:30:58;;;;;;;7.80;2.28;;;;;;;11.10;100.00;100002.94;5110040;28;20039;-75
2022/09/21 09:33:28;;;;;;;3.05;2.00;;;;;;;11.15;100.00;99998.16;5110341;28;20048;-74
2022/09/21 09:36:00;;;;;;;3.53;2.00;;;;;;;11.13;100.00;100002.78;5110837;28;20055;-75
2022/09/21 09:38:30;;;;;;;2.45;1.70;;;;;;;11.13;100.00;100011.78;5110835;28;20074;-75
2022/09/21 09:41:12;;;;;;;3.65;2.00;;;;;;;11.08;100.00;100002.16;5109691;28;20047;-75
2022/09/21 09:43:47;;;;;;;3.47;2.08;;;;;;;11.09;100.00;100009.31;5112330;28;20051;-74
2022/09/21 09:46:18;;;;;;;5.30;1.83;;;;;;;11.22;100.00;100007.69;5113114;28;20040;-75
2022/09/21 09:49:07;;;;;;;4.30;2.00;;;;;;;11.22;100.00;100004.09;5114134;28;20051;-75
2022/09/21 09:51:35;;;;;;;3.10;2.00;;;;;;;11.24;100.00;100003.06;5113349;28;20048;-75
2022/09/21 09:54:03;;;;;;;3.83;2.05;;;;;;;11.40;100.00;100007.59;5115138;28;20074;-74
2022/09/21 09:56:33;;;;;;;3.25;1.80;;;;;;;11.38;100.00;100004.94;5114655;28;20074;-74
2022/09/21 09:59:06;;;;;;;5.10;2.33;;;;;;;11.48;100.00;100001.75;5114831;28;20590;-74
2022/09/21 10:01:40;;;;;;;4.03;2.15;;;;;;;11.63;100.00;100003.56;5115483;28;20459;-74
2022/09/21 10:04:09;;;;;;;5.35;2.50;;;;;;;11.73;100.00;99996.63;5113820;28;20036;-74
2022/09/21 10:06:38;;;;;;;8.13;3.10;;;;;;;11.92;100.00;99997.38;5114716;27;20047;-74
2022/09/21 10:09:19;;;;;;;8.52;3.65;;;;;;;11.92;100.00;99992.84;5115561;27;20040;-73
2022/09/21 10:11:48;;;;;;;7.88;3.67;;;;;;;11.96;100.00;99994.41;5113555;28;20492;-73
2022/09/21 10:14:19;;;;;;;10.27;4.10;;;;;;;11.92;100.00;99995.56;5114673;27;20164;-73
2022/09/21 10:16:50;;;;;;;8.15;3.95;;;;;;;11.88;100.00;100004.81;5113196;28;20073;-73
2022/09/21 10:19:20;;;;;;;8.80;4.22;;;;;;;11.93;100.00;100005.41;5118095;27;20040;-73
2022/09/21 10:21:55;;;;;;;8.85;4.50;;;;;;;11.91;100.00;100001.06;5114714;28;20035;-73
2022/09/21 10:24:25;;;;;;;9.52;4.53;;;;;;;11.91;100.00;99998.34;5112750;28;20044;-73
2022/09/21 10:26:56;;;;;;;9.98;5.47;;;;;;;11.97;100.00;99995.25;5114597;27;20055;-74
2022/09/21 10:29:32;;;;;;;11.30;5.47;;;;;;;11.91;100.00;99998.34;5113231;28;20036;-73
2022/09/21 10:32:01;;;;;;;11.98;5.07;;;;;;;12.01;100.00;99999.56;5115808;27;20437;-73
2022/09/21 10:34:30;;;;;;;11.55;5.03;;;;;;;12.11;100.00;99994.47;5113354;28;20040;-73
2022/09/21 10:36:59;;;;;;;9.93;4.93;;;;;;;12.09;100.00;99994.59;5114372;28;20096;-73
2022/09/21 10:39:29;;;;;;;11.55;4.97;;;;;;;12.20;100.00;99995.75;5111544;28;20521;-73
2022/09/21 10:42:06;;;;;;;9.68;4.97;;;;;;;12.25;100.00;99994.53;5114189;27;20467;-74
2022/09/21 10:44:40;;;;;;;10.27;5.18;;;;;;;12.37;100.00;99990.16;5114557;28;20039;-73
2022/09/21 10:47:22;;;;;;;11.75;5.90;;;;;;;12.25;100.00;99996.34;5111789;28;20036;-74
2022/09/21 10:49:52;;;;;;;12.63;5.55;;;;;;;12.16;100.00;99995.06;5111578;28;20040;-74
2022/09/21 10:52:22;;;;;;;11.73;5.32;;;;;;;12.12;100.00;99996.22;5113879;28;20050;-73
2022/09/21 10:54:51;;;;;;;11.10;5.40;;;;;;;12.11;100.00;99992.66;5110990;28;20088;-73
2022/09/21 10:57:23;;;;;;;12.13;5.82;;;;;;;12.06;100.00;99997.47;5115245;27;20047;-73
2022/09/21 10:59:51;;;;;;;10.65;5.43;;;;;;;12.00;100.00;99989.66;5113224;28;20040;-73
2022/09/21 11:02:37;;;;;;;12.40;5.90;;;;;;;11.97;100.00;99997.97;5113604;28;20039;-73
2022/09/21 11:05:09;;;;;;;;;;;;;;;11.74;100.00;99995.66;5111004;28;20239;-75
2022/09/21 11:07:41;;;;;;;11.65;6.07;;;;;;;11.62;100.00;100004.50;5114199;28;20015;-73
2022/09/21 11:10:14;;;;;;;9.00;4.43;;;;;;;11.58;100.00;99998.41;5115866;27;20048;-73
2022/09/21 11:12:49;;;;;;;9.15;4.60;;;;;;;11.60;100.00;99999.19;5115888;27;20044;-74
2022/09/21 11:15:36;;;;;;;11.85;5.47;;;;;;;11.59;100.00;99996.59;5115304;27;20060;-73
2022/09/21 11:18:07;;;;;;;11.15;5.85;;;;;;;11.56;100.00;99994.91;5114367;28;20043;-73
2022/09/21 11:20:41;;;;;;;10.93;5.97;;;;;;;11.63;100.00;99989.16;5115709;27;20051;-73
2022/09/21 11:23:19;;;;;;;15.43;6.05;;;;;;;11.74;100.00;99989.41;5115844;27;20031;-73
2022/09/21 11:25:53;;;;;;;10.10;5.88;;;;;;;11.82;100.00;99984.41;5114946;28;20039;-73
2022/09/21 11:28:26;;;;;;;12.60;6.50;;;;;;;12.00;100.00;99979.75;5113011;28;20483;-75
2022/09/21 11:31:11;;;;;;;17.42;8.95;;;;;;;12.26;100.00;99982.72;5112137;28;20040;-75
2022/09/21 11:33:50;;;;;;;11.65;6.55;;;;;;;12.42;100.00;99973.66;5114431;27;20111;-74
2022/09/21 11:36:21;;;;;;;11.00;6.13;;;;;;;12.54;100.00;99967.47;5114710;27;20088;-74
2022/09/21 11:38:54;;;;;;;14.27;7.55;;;;;;;12.60;100.00;99963.50;5114940;27;20117;-74